Time;durP1;ratioP1;P1;durP2;ratioP2;P2;SDS_P1;SDS_P2;PMS_P1;PMS_P2;Temp;Humidity;BMP_temperature;BMP_pressure;BME280_temperature;BME280_humidity;BME280_pressure;Samples;Min_cycle;Max_cycle;Signal;HPM_P1;HPM_P2
2022/08/10 00:00:20;;;;;;;3.02;1.40;;;;;;;17.75;76.29;100042.56;1735709;82;21082;-75
2022/08/10 00:02:53;;;;;;;1.75;1.20;;;;;;;17.76;76.81;100044.74;1735020;82;21183;-75
2022/08/10 00:05:20;;;;;;;2.55;1.77;;;;;;;17.75;77.51;100034.58;1733919;82;21600;-74
2022/08/10 00:07:48;;;;;;;1.55;1.45;;;;;;;17.75;77.83;100034.58;1735097;82;21580;-75
2022/08/10 00:10:16;;;;;;;5.22;1.40;;;;;;;17.74;77.69;100032.84;1735166;82;21070;-74
2022/08/10 00:12:43;;;;;;;3.05;1.37;;;;;;;17.74;77.99;100034.17;1735544;82;21554;-75
2022/08/10 00:15:13;;;;;;;3.25;1.47;;;;;;;17.72;78.42;100036.08;1735302;82;21172;-74
2022/08/10 00:17:40;;;;;;;1.55;1.35;;;;;;;17.69;78.51;100041.56;1735177;82;21050;-75
2022/08/10 00:20:08;;;;;;;3.80;1.40;;;;;;;17.68;78.97;100038.98;1735130;82;21027;-75
2022/08/10 00:22:35;;;;;;;3.42;1.30;;;;;;;17.67;79.10;100043.91;1734967;82;21085;-74
2022/08/10 00:25:01;;;;;;;2.65;1.12;;;;;;;17.65;79.09;100042.66;1735114;82;21528;-74
2022/08/10 00:27:28;;;;;;;6.83;1.47;;;;;;;17.63;79.56;100039.23;1734885;82;21214;-75
2022/08/10 00:29:55;;;;;;;2.10;1.30;;;;;;;17.60;79.44;100035.41;1735220;82;21089;-74
2022/08/10 00:32:22;;;;;;;3.95;1.52;;;;;;;17.59;79.56;100031.05;1735291;82;21046;-74
2022/08/10 00:34:48;;;;;;;2.75;1.50;;;;;;;17.59;79.58;100032.38;1735380;82;21137;-74
2022/08/10 00:37:16;;;;;;;3.52;1.80;;;;;;;17.58;79.05;100030.65;1735455;82;21058;-75
2022/08/10 00:39:44;;;;;;;2.58;1.50;;;;;;;17.56;79.12;100027.22;1734957;82;21562;-75
2022/08/10 00:42:12;;;;;;;2.33;1.60;;;;;;;17.55;79.46;100026.82;1735461;82;21078;-74
2022/08/10 00:44:43;;;;;;;4.42;1.60;;;;;;;17.56;79.75;100028.55;1735045;82;21011;-75
2022/08/10 00:47:10;;;;;;;1.37;1.27;;;;;;;17.58;79.93;100030.16;1734958;82;21078;-74
2022/08/10 00:49:37;;;;;;;4.28;1.40;;;;;;;17.54;79.93;100031.78;1735464;82;21011;-75
2022/08/10 00:52:04;;;;;;;2.52;1.67;;;;;;;17.52;80.01;100028.34;1735211;82;21118;-75
2022/08/10 00:54:30;;;;;;;1.60;1.50;;;;;;;17.50;80.51;100026.22;1744585;81;21065;-75
2022/08/10 00:56:57;;;;;;;1.57;1.30;;;;;;;17.48;80.87;100025.45;1766063;81;21097;-75
2022/08/10 00:59:23;;;;;;;2.00;1.20;;;;;;;17.45;80.85;100023.36;1766012;81;21615;-75
2022/08/10 01:01:50;;;;;;;7.75;1.47;;;;;;;17.43;81.05;100019.92;1766191;81;21116;-74
2022/08/10 01:04:16;;;;;;;4.20;1.50;;;;;;;17.41;81.21;100013.81;1766213;81;21135;-74
2022/08/10 01:07:11;;;;;;;3.83;1.37;;;;;;;17.40;81.36;100012.11;1766026;81;21118;-75
2022/08/10 01:09:49;;;;;;;1.92;1.40;;;;;;;17.39;81.42;100013.05;1765997;81;21094;-75
2022/08/10 01:12:38;;;;;;;3.17;1.70;;;;;;;17.38;81.71;100020.66;1766194;81;21085;-76
2022/08/10 01:15:22;;;;;;;4.03;1.60;;;;;;;17.35;81.78;100027.47;1766133;81;21058;-75
2022/08/10 01:18:16;;;;;;;1.77;1.35;;;;;;;17.30;81.81;100022.88;1765943;81;21112;-76
2022/08/10 01:21:11;;;;;;;2.87;1.50;;;;;;;17.30;81.50;100025.53;1787934;80;21043;-76
2022/08/10 01:24:15;;;;;;;2.87;1.80;;;;;;;17.28;81.51;100015.42;1775116;80;21054;-75
2022/08/10 01:27:13;;;;;;;2.70;1.82;;;;;;;17.23;81.45;100022.79;1749230;80;21114;-76
2022/08/10 01:30:09;;;;;;;1.50;1.35;;;;;;;17.18;81.44;100030.16;1775469;80;21043;-77
2022/08/10 01:33:03;;;;;;;1.72;1.30;;;;;;;17.18;81.68;100027.50;1775266;80;21130;-73
2022/08/10 01:35:35;;;;;;;2.42;1.42;;;;;;;17.17;82.25;100028.46;1774938;80;21441;-75
2022/08/10 01:38:16;;;;;;;10.58;2.02;;;;;;;17.11;82.53;100018.99;1774658;80;21134;-75
2022/08/10 01:40:47;;;;;;;5.40;1.70;;;;;;;17.09;82.74;100012.42;1759417;81;21040;-75
2022/08/10 01:43:15;;;;;;;3.05;1.70;;;;;;;17.11;82.82;100018.14;1759174;81;21054;-74
2022/08/10 01:45:44;;;;;;;2.85;1.67;;;;;;;17.11;82.88;100019.48;1759619;81;21541;-75
2022/08/10 01:48:27;;;;;;;7.37;2.70;;;;;;;17.08;82.70;100012.06;1759566;81;21031;-73
2022/08/10 01:50:59;;;;;;;3.05;1.87;;;;;;;17.05;82.86;100014.88;1759638;81;21059;-75
2022/08/10 01:53:30;;;;;;;5.78;2.05;;;;;;;17.04;83.04;100013.14;1782224;80;21012;-75
2022/08/10 01:55:57;;;;;;;3.25;2.27;;;;;;;17.02;83.13;100015.03;1774817;80;21070;-74
2022/08/10 01:58:23;;;;;;;3.08;2.60;;;;;;;17.00;83.25;100023.56;1790882;80;21110;-75
2022/08/10 02:00:50;;;;;;;4.37;2.50;;;;;;;16.99;83.33;100024.98;1790956;80;21133;-75
2022/08/10 02:03:18;;;;;;;4.42;2.30;;;;;;;16.96;83.26;100024.66;1751628;80;21030;-74
2022/08/10 02:05:47;;;;;;;2.98;1.90;;;;;;;16.97;83.10;100030.85;1790781;80;21097;-75
2022/08/10 02:08:16;;;;;;;6.78;1.80;;;;;;;16.96;83.03;100019.34;1791006;80;21062;-74
2022/08/10 02:42:24;;;;;;;2.15;1.57;;;;;;;16.58;84.08;99993.45;1800547;79;21086;-74
2022/08/10 02:45:14;;;;;;;1.95;1.35;;;;;;;16.57;84.12;100012.48;1779933;80;21025;-75
2022/08/10 02:47:58;;;;;;;5.22;1.60;;;;;;;16.52;84.06;100016.73;1747348;82;20942;-76
2022/08/10 02:50:32;;;;;;;4.40;1.67;;;;;;;16.50;84.02;100022.56;1778882;80;21096;-74
2022/08/10 02:53:26;;;;;;;1.80;1.52;;;;;;;16.51;83.95;100025.62;1747420;82;20994;-75
2022/08/10 02:55:57;;;;;;;3.77;1.77;;;;;;;16.51;83.93;100019.47;1779776;79;21122;-74
2022/08/10 02:58:41;;;;;;;4.92;2.10;;;;;;;16.50;84.12;100013.75;1747915;81;20998;-74
2022/08/10 03:01:10;;;;;;;2.55;1.80;;;;;;;16.48;84.31;100008.98;1747754;82;21025;-75
2022/08/10 03:03:47;;;;;;;4.15;1.92;;;;;;;16.52;84.47;100010.54;1756203;80;21160;-74
2022/08/10 03:06:18;;;;;;;2.77;2.58;;;;;;;16.54;84.45;100016.63;1780045;80;21029;-74
2022/08/10 03:08:44;;;;;;;4.17;2.45;;;;;;;16.55;84.23;100018.36;1779952;80;21174;-75
2022/08/10 03:11:22;;;;;;;4.33;2.75;;;;;;;16.54;84.07;100024.59;1700370;82;21030;-75
2022/08/10 03:13:50;;;;;;;3.67;2.62;;;;;;;16.54;84.01;100025.92;1779907;80;21620;-75
2022/08/10 03:16:16;;;;;;;3.90;2.75;;;;;;;16.57;84.16;100023.11;1780119;80;21492;-75
2022/08/10 03:18:43;;;;;;;4.83;2.87;;;;;;;16.59;84.21;100027.88;1782069;79;21655;-75
2022/08/10 03:21:09;;;;;;;3.90;2.80;;;;;;;16.59;84.11;100024.36;1804601;79;21078;-74
2022/08/10 03:23:36;;;;;;;2.70;2.50;;;;;;;16.59;84.14;100017.24;1804117;79;21003;-75
2022/08/10 03:26:02;;;;;;;5.08;2.10;;;;;;;16.58;84.32;100015.55;1804562;79;21067;-74
2022/08/10 03:28:30;;;;;;;3.65;1.82;;;;;;;16.58;84.61;100016.87;1804377;79;21062;-74
2022/08/10 03:30:57;;;;;;;4.70;2.30;;;;;;;16.58;84.74;100015.55;1804220;78;20987;-75
2022/08/10 03:33:28;;;;;;;2.50;1.80;;;;;;;16.59;84.64;100029.20;1804684;79;21089;-75
2022/08/10 03:35:55;;;;;;;4.58;1.80;;;;;;;16.59;84.60;100025.21;1804192;79;21015;-74
2022/08/10 03:38:21;;;;;;;3.37;2.10;;;;;;;16.60;84.54;100037.57;1804294;78;21066;-74
2022/08/10 03:40:48;;;;;;;2.02;1.90;;;;;;;16.59;84.54;100037.64;1803882;79;20988;-75
2022/08/10 03:43:16;;;;;;;5.50;2.70;;;;;;;16.52;84.67;100045.06;1804300;79;20995;-75
2022/08/10 03:45:43;;;;;;;7.80;2.17;;;;;;;16.45;84.87;100036.55;1805250;79;21816;-74
2022/08/10 03:48:10;;;;;;;2.25;2.05;;;;;;;16.42;85.14;100030.54;1804153;79;21594;-75
2022/08/10 03:50:37;;;;;;;5.53;2.27;;;;;;;16.41;85.48;100034.12;1802561;78;21230;-75
2022/08/10 03:53:04;;;;;;;2.10;1.90;;;;;;;16.37;85.74;100034.75;1793218;79;21056;-75
2022/08/10 03:55:31;;;;;;;2.77;2.08;;;;;;;16.35;85.94;100041.46;1792016;80;20973;-75
2022/08/10 03:57:57;;;;;;;2.52;2.08;;;;;;;16.39;86.16;100050.61;1770012;80;21209;-75
2022/08/10 04:00:25;;;;;;;6.83;1.77;;;;;;;16.43;86.22;100050.86;1792108;80;20992;-75
2022/08/10 04:02:52;;;;;;;5.00;2.00;;;;;;;16.50;86.25;100038.98;1792071;80;21030;-75
2022/08/10 04:05:18;;;;;;;3.12;2.15;;;;;;;16.50;86.05;100037.66;1791813;80;21648;-74
2022/08/10 04:07:45;;;;;;;3.20;1.95;;;;;;;16.52;86.10;100038.43;1770035;80;21086;-75
2022/08/10 04:10:13;;;;;;;4.97;2.67;;;;;;;16.58;86.12;100023.52;1792081;80;21135;-75
2022/08/10 04:12:40;;;;;;;7.35;2.67;;;;;;;16.66;86.21;100012.47;1792232;80;21063;-75
2022/08/10 04:15:08;;;;;;;5.95;2.15;;;;;;;16.72;86.32;100001.05;1791868;80;21090;-74
2022/08/10 04:17:36;;;;;;;3.50;1.82;;;;;;;16.76;86.44;99996.47;1792135;80;22177;-74
2022/08/10 04:20:03;;;;;;;3.22;2.02;;;;;;;16.84;86.59;100008.00;1791933;80;20944;-75
2022/08/10 04:22:30;;;;;;;6.85;1.95;;;;;;;16.91;86.62;99998.79;1792206;80;21237;-75
2022/08/10 04:25:01;;;;;;;3.42;1.87;;;;;;;16.97;86.64;100011.77;1792056;80;21047;-74
2022/08/10 04:27:28;;;;;;;8.60;2.05;;;;;;;17.02;86.55;100019.02;1792098;80;21016;-75
2022/08/10 04:29:55;;;;;;;7.70;1.70;;;;;;;17.08;86.67;100032.48;1792101;80;21054;-75
2022/08/10 04:32:22;;;;;;;8.48;2.33;;;;;;;17.14;86.64;100044.58;1792101;80;21467;-75
2022/08/10 04:34:49;;;;;;;3.92;2.05;;;;;;;17.21;86.59;100039.31;1792155;80;21137;-75
2022/08/10 04:37:15;;;;;;;5.60;1.92;;;;;;;17.27;86.55;100046.48;1792107;80;20996;-74
2022/08/10 04:39:41;;;;;;;9.00;2.25;;;;;;;17.33;86.24;100049.30;1770237;80;21303;-75
2022/08/10 04:42:08;;;;;;;2.98;1.80;;;;;;;17.39;86.18;100054.27;1770249;80;21547;-74
2022/08/10 04:44:35;;;;;;;3.70;1.80;;;;;;;17.46;86.20;100051.66;1791787;80;21639;-74
2022/08/10 04:47:01;;;;;;;3.40;1.70;;;;;;;17.53;86.12;100051.33;1770176;80;21122;-75
2022/08/10 04:49:28;;;;;;;5.40;1.90;;;;;;;17.60;86.01;100046.05;1792009;80;21028;-75
2022/08/10 04:51:55;;;;;;;2.20;2.00;;;;;;;17.64;86.04;100043.63;1792122;80;21067;-75
2022/08/10 04:54:21;;;;;;;5.22;1.92;;;;;;;17.68;85.91;100042.49;1792139;80;20976;-76
2022/08/10 04:56:48;;;;;;;4.35;1.92;;;;;;;17.73;85.82;100044.42;1792293;80;21039;-74
2022/08/10 04:59:15;;;;;;;2.83;1.92;;;;;;;17.79;85.92;100044.09;1792126;80;22138;-75
2022/08/10 05:01:41;;;;;;;2.35;2.00;;;;;;;17.83;85.70;100041.63;1792013;80;21593;-75
2022/08/10 05:04:08;;;;;;;5.83;2.20;;;;;;;17.89;85.45;100042.29;1792311;80;21008;-75
2022/08/10 05:06:34;;;;;;;3.67;1.70;;;;;;;17.95;85.29;100044.59;1791883;80;21016;-75
2022/08/10 05:09:01;;;;;;;3.58;1.80;;;;;;;18.03;85.16;100047.67;1792063;80;21099;-75
2022/08/10 05:11:28;;;;;;;2.08;1.62;;;;;;;18.09;84.97;100046.45;1792101;80;21274;-75
2022/08/10 05:13:54;;;;;;;3.60;1.80;;;;;;;18.11;84.72;100040.11;1792111;80;21012;-74
2022/08/10 05:16:21;;;;;;;1.87;1.72;;;;;;;18.14;84.47;100034.61;1792007;80;22281;-75
2022/08/10 05:18:47;;;;;;;3.50;1.82;;;;;;;18.19;84.33;100032.53;1792329;80;21091;-75
2022/08/10 05:21:14;;;;;;;9.30;2.02;;;;;;;18.22;84.37;100038.62;1791914;80;21055;-74
2022/08/10 05:23:41;;;;;;;4.10;2.10;;;;;;;18.23;84.14;100037.69;1792160;79;21112;-75
2022/08/10 05:26:07;;;;;;;2.80;1.82;;;;;;;18.20;84.13;100035.56;1792195;80;20993;-76
2022/08/10 05:28:34;;;;;;;6.65;2.00;;;;;;;18.23;84.13;100035.88;1792114;80;21115;-75
2022/08/10 05:31:00;;;;;;;5.35;1.80;;;;;;;18.31;84.12;100028.78;1792051;80;21039;-74
2022/08/10 05:33:27;;;;;;;3.85;2.00;;;;;;;18.33;84.07;100028.20;1791973;80;21537;-74
2022/08/10 05:35:54;;;;;;;3.95;2.30;;;;;;;18.34;83.82;100028.58;1792065;80;21102;-75
2022/08/10 05:38:20;;;;;;;8.05;2.12;;;;;;;18.37;83.82;100035.06;1792303;80;20980;-74
2022/08/10 05:40:46;;;;;;;7.03;2.30;;;;;;;18.40;83.77;100036.22;1744810;80;21044;-75
2022/08/10 05:43:17;;;;;;;3.37;2.05;;;;;;;18.44;83.57;100039.10;1792125;79;21593;-75
2022/08/10 05:45:44;;;;;;;6.83;2.12;;;;;;;18.43;83.45;100045.37;1792310;79;21534;-76
2022/08/10 05:48:10;;;;;;;3.40;2.27;;;;;;;18.41;83.06;100064.59;1787569;79;21539;-75
2022/08/10 05:50:37;;;;;;;4.33;1.95;;;;;;;18.39;82.92;100067.79;1804440;79;21032;-75
2022/08/10 05:53:03;;;;;;;4.58;2.45;;;;;;;18.31;82.48;100064.74;1803668;79;20998;-75
2022/08/10 05:55:30;;;;;;;4.33;2.00;;;;;;;18.29;82.83;100066.61;1804681;79;21088;-75
2022/08/10 05:57:57;;;;;;;5.22;2.22;;;;;;;18.32;82.93;100065.95;1804076;79;21563;-76
2022/08/10 06:00:25;;;;;;;3.10;2.37;;;;;;;18.34;82.77;100070.75;1804503;79;21082;-75
2022/08/10 06:02:56;;;;;;;7.87;2.15;;;;;;;18.35;82.65;100064.45;1804004;78;20977;-76
2022/08/10 06:05:24;;;;;;;4.87;2.20;;;;;;;18.38;82.26;100056.28;1804311;79;20986;-75
2022/08/10 06:08:12;;;;;;;7.35;2.30;;;;;;;18.42;82.51;100050.30;1804696;79;21555;-74
2022/08/10 06:10:38;;;;;;;4.95;2.20;;;;;;;18.48;82.80;100047.28;1804379;79;21524;-75
2022/08/10 06:15:55;;;;;;;4.03;2.75;;;;;;;18.52;82.47;100046.14;1804209;79;21453;-75
2022/08/10 06:18:23;;;;;;;3.50;2.33;;;;;;;18.51;82.13;100053.77;1804160;79;21586;-75
2022/08/10 06:20:50;;;;;;;3.10;2.30;;;;;;;18.49;82.02;100045.47;1804310;79;21519;-74
2022/08/10 06:23:17;;;;;;;4.58;2.17;;;;;;;18.50;82.16;100049.38;1804178;79;21565;-75
2022/08/10 06:25:43;;;;;;;5.03;2.30;;;;;;;18.53;82.12;100042.53;1804579;79;21090;-74
2022/08/10 06:28:13;;;;;;;3.25;2.33;;;;;;;18.55;81.94;100049.95;1803981;79;20981;-75
2022/08/10 06:30:40;;;;;;;4.60;2.30;;;;;;;18.57;81.66;100044.05;1804458;79;21092;-74
2022/08/10 06:33:06;;;;;;;8.85;2.55;;;;;;;18.60;81.55;100047.52;1804086;79;21689;-74
2022/08/10 06:35:34;;;;;;;3.60;2.37;;;;;;;18.61;81.46;100050.55;1804331;79;21582;-75
2022/08/10 06:38:02;;;;;;;5.20;2.00;;;;;;;18.62;81.58;100050.94;1781960;79;22023;-74
2022/08/10 06:40:34;;;;;;;2.58;2.30;;;;;;;18.67;81.39;100047.52;1781945;79;21049;-75
2022/08/10 06:43:04;;;;;;;6.90;2.20;;;;;;;18.70;81.15;100046.86;1803765;79;21052;-75
2022/08/10 06:45:38;;;;;;;3.95;2.10;;;;;;;18.75;80.82;100049.26;1804105;79;21037;-75
2022/08/10 06:48:15;;;;;;;16.23;2.37;;;;;;;18.76;80.55;100044.29;1804547;79;21013;-75
2022/08/10 06:50:47;;;;;;;4.20;2.25;;;;;;;18.79;80.66;100048.59;1804319;79;21207;-74
2022/08/10 06:53:19;;;;;;;6.67;2.10;;;;;;;18.82;80.69;100054.59;1804335;79;21064;-75
2022/08/10 06:56:08;;;;;;;3.20;2.02;;;;;;;18.87;80.66;100047.20;1804174;79;21048;-75
2022/08/10 06:58:40;;;;;;;4.92;1.85;;;;;;;18.92;80.58;100049.12;1804527;79;21085;-74
2022/08/10 07:01:10;;;;;;;4.30;1.80;;;;;;;18.96;80.25;100039.60;1803880;79;21135;-74
2022/08/10 07:03:41;;;;;;;2.08;1.70;;;;;;;19.01;80.32;100049.51;1804655;79;21084;-76
2022/08/10 07:06:11;;;;;;;9.15;2.22;;;;;;;19.05;80.30;100042.56;1803494;79;21072;-74
2022/08/10 07:08:38;;;;;;;2.70;1.95;;;;;;;19.14;79.51;100037.13;1782666;79;21017;-75
2022/08/10 07:11:04;;;;;;;2.40;1.70;;;;;;;19.15;78.80;100040.20;1803978;79;21065;-75
2022/08/10 07:13:31;;;;;;;6.42;2.08;;;;;;;19.12;78.57;100043.05;1804647;79;21012;-76
2022/08/10 07:15:58;;;;;;;3.77;1.80;;;;;;;19.11;78.31;100037.32;1804229;79;21582;-75
2022/08/10 07:18:25;;;;;;;4.40;1.85;;;;;;;19.12;77.92;100045.72;1804176;79;21645;-74
2022/08/10 07:20:52;;;;;;;2.17;1.70;;;;;;;19.16;78.02;100049.05;1804153;79;21572;-74
2022/08/10 07:23:19;;;;;;;3.33;1.90;;;;;;;19.17;77.75;100047.63;1804005;79;21386;-75
2022/08/10 07:25:45;;;;;;;2.80;2.08;;;;;;;19.18;77.75;100048.02;1782342;79;21013;-74
2022/08/10 07:28:12;;;;;;;2.10;1.75;;;;;;;19.19;77.86;100047.04;1803920;79;21492;-75
2022/08/10 07:30:38;;;;;;;3.50;1.62;;;;;;;19.24;78.18;100047.61;1782157;79;21179;-75
2022/08/10 07:33:05;;;;;;;5.67;2.00;;;;;;;19.31;78.03;100047.60;1804519;79;21064;-75
2022/08/10 07:35:34;;;;;;;5.40;1.98;;;;;;;19.39;77.87;100049.80;1804107;79;20989;-75
2022/08/10 07:38:02;;;;;;;3.20;1.95;;;;;;;19.48;77.97;100043.91;1782331;79;21099;-75
2022/08/10 07:40:29;;;;;;;4.42;1.85;;;;;;;19.55;77.58;100043.03;1804302;79;22652;-75
2022/08/10 07:42:58;;;;;;;5.00;1.98;;;;;;;19.62;77.66;100043.02;1804109;79;21535;-75
2022/08/10 07:45:29;;;;;;;5.62;1.67;;;;;;;19.67;77.77;100046.73;1804270;79;21004;-75
2022/08/10 07:48:17;;;;;;;5.87;2.10;;;;;;;19.70;77.48;100046.52;1804361;79;21104;-75
2022/08/10 07:50:45;;;;;;;4.83;1.90;;;;;;;19.75;77.14;100052.93;1799190;79;21076;-75
2022/08/10 07:53:16;;;;;;;7.08;1.98;;;;;;;19.79;76.93;100059.80;1804131;79;22169;-75
2022/08/10 07:55:43;;;;;;;8.00;1.98;;;;;;;19.76;76.51;100055.99;1808987;79;21073;-75
2022/08/10 07:58:09;;;;;;;4.17;2.20;;;;;;;19.75;76.74;100052.44;1755823;79;20983;-75
2022/08/10 08:00:36;;;;;;;6.20;1.80;;;;;;;19.76;76.68;100047.50;1784591;80;21553;-75
2022/08/10 08:03:05;;;;;;;6.25;1.90;;;;;;;19.80;76.78;100045.48;1812845;79;21075;-75
2022/08/10 08:05:32;;;;;;;4.03;2.02;;;;;;;19.81;76.64;100044.53;1783939;80;21843;-75
2022/08/10 08:07:59;;;;;;;3.30;1.80;;;;;;;19.86;76.57;100047.77;1812354;79;21108;-75
2022/08/10 08:10:27;;;;;;;1.92;1.80;;;;;;;19.91;76.71;100055.00;1753833;80;21073;-74
2022/08/10 08:12:56;;;;;;;5.10;1.70;;;;;;;19.94;76.50;100052.13;1812530;79;20979;-75
2022/08/10 08:15:23;;;;;;;3.80;1.90;;;;;;;19.97;76.37;100049.27;1784703;80;21133;-75
2022/08/10 08:17:51;;;;;;;9.93;2.22;;;;;;;20.01;76.18;100056.11;1812665;79;21117;-76
2022/08/10 08:20:18;;;;;;;2.37;1.90;;;;;;;20.04;76.17;100050.57;1753798;80;21165;-74
2022/08/10 08:22:45;;;;;;;9.28;1.80;;;;;;;20.08;75.84;100055.72;1813141;79;21883;-74
2022/08/10 08:25:12;;;;;;;6.92;1.95;;;;;;;20.08;75.95;100057.05;1812597;78;20946;-75
2022/08/10 08:27:40;;;;;;;1.82;1.72;;;;;;;20.13;75.88;100042.91;1784361;80;21101;-74
2022/08/10 08:30:08;;;;;;;5.37;2.65;;;;;;;20.17;75.52;100041.73;1812718;79;21477;-75
2022/08/10 08:32:36;;;;;;;5.33;1.70;;;;;;;20.20;75.42;100042.88;1784422;80;21031;-74
2022/08/10 08:35:09;;;;;;;9.83;1.80;;;;;;;20.23;75.38;100050.20;1812731;79;21030;-75
2022/08/10 08:37:40;;;;;;;6.37;1.80;;;;;;;20.24;75.23;100049.75;1784340;80;21119;-75
2022/08/10 08:40:08;;;;;;;4.20;1.62;;;;;;;20.26;75.37;100050.50;1811782;79;21018;-74
2022/08/10 08:42:57;;;;;;;2.92;1.60;;;;;;;20.30;75.78;100045.30;1812695;78;21772;-75
2022/08/10 08:46:03;;;;;;;2.75;1.50;;;;;;;20.35;76.04;100043.18;1812717;78;21296;-75
2022/08/10 08:49:09;;;;;;;2.77;1.65;;;;;;;20.44;75.60;100035.51;1790966;79;21100;-75
2022/08/10 08:52:06;;;;;;;3.05;1.80;;;;;;;20.49;75.06;100030.70;1761569;80;21514;-75
2022/08/10 08:54:49;;;;;;;2.02;1.67;;;;;;;20.52;75.08;100036.70;1813019;79;21042;-75
2022/08/10 08:57:40;;;;;;;2.95;1.70;;;;;;;20.58;74.91;100043.47;1811724;79;21125;-74
2022/08/10 09:00:39;;;;;;;4.50;1.90;;;;;;;20.62;74.52;100044.11;1804774;79;20982;-75
2022/08/10 09:03:42;;;;;;;2.67;2.20;;;;;;;20.64;74.05;100050.23;1784277;80;21085;-75
2022/08/10 09:06:26;;;;;;;1.70;1.60;;;;;;;20.62;73.64;100054.31;1803118;79;21058;-74
2022/08/10 09:09:26;;;;;;;2.10;2.00;;;;;;;20.61;73.55;100059.30;1812794;79;21089;-75
2022/08/10 09:12:19;;;;;;;3.80;1.98;;;;;;;20.63;73.76;100046.71;1783795;80;21714;-75
2022/08/10 09:15:08;;;;;;;3.20;2.08;;;;;;;20.68;73.75;100045.92;1812480;79;21512;-76
2022/08/10 09:17:56;;;;;;;2.33;2.12;;;;;;;20.77;73.43;100043.09;1784371;80;21495;-75
2022/08/10 09:20:39;;;;;;;3.45;2.10;;;;;;;20.87;73.61;100039.30;1812381;78;21070;-75
2022/08/10 09:23:46;;;;;;;4.17;2.22;;;;;;;20.99;73.69;100036.25;1784387;80;21030;-75
2022/08/10 09:26:26;;;;;;;4.20;2.12;;;;;;;21.08;73.09;100036.47;1812704;79;21062;-76
2022/08/10 09:28:55;;;;;;;6.22;2.72;;;;;;;21.19;72.89;100036.20;1768255;80;20971;-76
2022/08/10 09:31:23;;;;;;;3.72;2.50;;;;;;;21.20;72.07;100029.86;1812759;79;21156;-76
2022/08/10 09:34:13;;;;;;;3.77;2.40;;;;;;;21.22;71.89;100038.66;1784647;80;21047;-75
2022/08/10 09:36:57;;;;;;;3.37;2.40;;;;;;;21.23;71.59;100037.68;1812544;79;20998;-75
2022/08/10 09:39:55;;;;;;;2.33;2.00;;;;;;;21.20;70.69;100036.55;1812640;78;21827;-76
2022/08/10 09:42:44;;;;;;;2.30;2.10;;;;;;;21.16;71.08;100038.59;1777752;80;21080;-76
2022/08/10 09:45:31;;;;;;;7.78;2.30;;;;;;;21.17;71.46;100042.99;1809638;79;21035;-76
2022/08/10 09:48:11;;;;;;;3.05;2.35;;;;;;;21.18;70.70;100037.15;1783701;80;21474;-75
2022/08/10 09:51:20;;;;;;;5.65;2.30;;;;;;;21.20;71.11;100033.87;1807200;78;21271;-76
2022/08/10 09:54:13;;;;;;;2.58;2.37;;;;;;;21.23;70.73;100033.20;1808503;79;21118;-76
2022/08/10 09:56:54;;;;;;;2.62;2.42;;;;;;;21.27;70.84;100032.50;1812677;79;20962;-75
2022/08/10 09:59:46;;;;;;;4.22;2.52;;;;;;;21.31;70.32;100027.29;1784254;80;20983;-75
2022/08/10 10:02:27;;;;;;;2.60;2.30;;;;;;;21.36;70.24;100025.14;1812607;79;21081;-77
2022/08/10 10:05:21;;;;;;;3.05;2.75;;;;;;;21.34;69.89;100027.92;1783880;80;21036;-74
2022/08/10 10:07:56;;;;;;;3.92;2.55;;;;;;;21.37;70.38;100017.49;1812722;79;21080;-73
2022/08/10 10:10:27;;;;;;;3.27;2.80;;;;;;;21.41;70.17;100016.29;1784032;80;21082;-75
2022/08/10 10:12:59;;;;;;;3.10;2.83;;;;;;;21.44;70.22;100013.40;1812901;79;21049;-74
2022/08/10 10:15:49;;;;;;;2.95;2.65;;;;;;;21.50;70.40;100021.03;1754255;80;21616;-75
2022/08/10 10:18:45;;;;;;;3.58;2.42;;;;;;;21.50;70.10;100021.03;1811993;79;21034;-76
2022/08/10 10:21:43;;;;;;;2.95;2.75;;;;;;;21.55;70.52;100020.67;1789029;79;21820;-75
2022/08/10 10:24:44;;;;;;;2.92;2.50;;;;;;;21.61;70.94;100019.39;1804038;79;21460;-75
2022/08/10 10:27:46;;;;;;;4.80;2.67;;;;;;;21.70;70.86;100014.69;1784347;80;21407;-76
2022/08/10 10:30:11;;;;;;;3.80;2.42;;;;;;;21.78;70.30;100005.61;1811795;79;21497;-75
2022/08/10 10:32:54;;;;;;;2.77;2.20;;;;;;;21.81;69.82;100008.07;1813002;78;21081;-75
2022/08/10 10:35:34;;;;;;;3.52;2.70;;;;;;;21.81;69.95;100008.07;1812493;79;22230;-75
2022/08/10 10:38:03;;;;;;;3.52;2.83;;;;;;;21.85;69.88;100012.22;1777888;79;20947;-75
2022/08/10 10:40:38;;;;;;;3.27;2.42;;;;;;;21.92;70.18;100004.58;1812630;78;20982;-75
2022/08/10 10:43:32;;;;;;;2.92;2.47;;;;;;;21.99;70.13;99995.61;1812726;78;21022;-76
2022/08/10 10:46:30;;;;;;;2.87;2.55;;;;;;;22.06;69.92;99999.56;1812518;78;21532;-76
2022/08/10 10:49:20;;;;;;;6.10;2.60;;;;;;;22.16;70.46;99990.34;1784078;80;21966;-75
2022/08/10 10:52:10;;;;;;;8.25;2.75;;;;;;;22.24;70.57;99979.88;1812715;78;21003;-76
2022/08/10 10:55:00;;;;;;;3.45;2.60;;;;;;;22.32;69.96;99986.04;1784140;80;21046;-76
2022/08/10 10:57:32;;;;;;;4.05;2.60;;;;;;;22.36;69.92;99992.86;1781886;79;21038;-75
2022/08/10 11:00:10;;;;;;;4.67;2.33;;;;;;;22.35;69.26;99989.83;1812598;79;21081;-75
2022/08/10 11:02:51;;;;;;;3.67;2.40;;;;;;;22.31;68.82;99993.70;1812942;79;21289;-74
2022/08/10 11:05:57;;;;;;;2.08;1.98;;;;;;;22.25;68.51;99995.84;1812697;79;21042;-74
2022/08/10 11:08:26;;;;;;;2.42;2.22;;;;;;;22.20;69.03;99992.66;1784449;80;21106;-75
2022/08/10 11:10:59;;;;;;;3.27;2.30;;;;;;;22.20;69.26;99993.16;1813014;79;20995;-75
2022/08/10 11:13:40;;;;;;;3.67;2.33;;;;;;;22.19;68.96;99990.97;1777820;80;21026;-75
2022/08/10 11:16:21;;;;;;;2.87;2.25;;;;;;;22.20;68.98;99985.11;1810312;79;21103;-74
2022/08/10 11:18:59;;;;;;;5.00;2.50;;;;;;;22.14;68.81;99986.91;1784184;80;21553;-75
2022/08/10 11:22:02;;;;;;;3.33;2.58;;;;;;;22.12;69.63;99987.52;1812887;78;21053;-75
2022/08/10 11:24:49;;;;;;;2.87;2.20;;;;;;;22.11;70.05;99985.33;1812643;78;21053;-75
2022/08/10 11:27:57;;;;;;;3.30;2.22;;;;;;;22.12;70.11;99987.02;1784695;80;21458;-75
2022/08/10 11:30:32;;;;;;;2.87;1.95;;;;;;;22.15;70.59;99992.64;1812832;79;22010;-74
2022/08/10 11:33:36;;;;;;;3.55;2.27;;;;;;;22.18;69.90;99985.23;1784523;80;21544;-75
2022/08/10 11:36:10;;;;;;;2.72;2.25;;;;;;;22.16;69.61;99984.98;1812527;79;21018;-75
2022/08/10 11:39:00;;;;;;;7.17;2.42;;;;;;;22.16;69.93;99983.16;1784602;80;21588;-75
2022/08/10 11:41:44;;;;;;;2.33;2.12;;;;;;;22.16;70.12;99977.80;1812774;79;20966;-75
2022/08/10 11:44:31;;;;;;;2.80;2.10;;;;;;;22.16;70.90;99983.16;1813933;78;21221;-75
2022/08/10 11:47:21;;;;;;;2.25;2.12;;;;;;;22.17;69.70;99977.30;1810407;79;20997;-75
2022/08/10 11:50:26;;;;;;;2.15;1.77;;;;;;;22.16;69.85;99977.80;1755780;79;20993;-75
2022/08/10 11:53:40;;;;;;;2.90;1.87;;;;;;;22.16;70.79;99972.44;1815307;79;21036;-75
2022/08/10 11:56:08;;;;;;;1.95;1.77;;;;;;;22.19;70.78;99970.87;1791396;79;21110;-74
2022/08/10 12:01:22;;;;;;;;;;;;;;;22.22;70.94;99973.28;1818485;79;21083;-75
2022/08/10 12:03:49;;;;;;;5.67;1.90;;;;;;;22.23;70.87;99972.33;1815623;78;20204;-76
2022/08/10 12:06:18;;;;;;;4.42;1.95;;;;;;;22.20;70.70;99983.28;1815297;79;21146;-75
2022/08/10 12:08:46;;;;;;;1.85;1.75;;;;;;;22.21;71.11;99982.31;1815192;78;21471;-75
2022/08/10 12:11:18;;;;;;;3.92;1.77;;;;;;;22.21;69.41;99978.30;1815302;79;21099;-74
2022/08/10 12:13:50;;;;;;;1.90;1.67;;;;;;;22.18;69.93;99980.36;1815032;78;21032;-75
2022/08/10 12:16:19;;;;;;;7.05;1.70;;;;;;;22.19;70.05;99980.25;1815300;79;21640;-75
2022/08/10 12:19:12;;;;;;;2.15;1.70;;;;;;;22.23;70.69;99973.67;1815108;78;21103;-75
2022/08/10 12:21:43;;;;;;;6.37;1.70;;;;;;;22.28;69.66;99973.36;1761936;79;21099;-75
2022/08/10 12:24:25;;;;;;;3.12;1.50;;;;;;;22.30;68.71;99968.73;1815153;79;21208;-75
2022/08/10 12:27:09;;;;;;;3.35;1.60;;;;;;;22.31;67.70;99970.91;1815114;79;21043;-74
2022/08/10 12:29:43;;;;;;;1.52;1.42;;;;;;;22.32;67.60;99972.63;1815319;79;21048;-74
2022/08/10 12:32:30;;;;;;;3.70;1.32;;;;;;;22.32;67.29;99968.61;1815917;78;26741;-74
2022/08/10 12:35:16;;;;;;;1.57;1.47;;;;;;;22.30;67.42;99967.88;1815531;78;21538;-74
2022/08/10 12:37:57;;;;;;;2.17;1.52;;;;;;;22.31;68.17;99966.89;1815578;79;21107;-75